Time;durP1;ratioP1;P1;durP2;ratioP2;P2;SDS_P1;SDS_P2;PMS_P1;PMS_P2;Temp;Humidity;BMP_temperature;BMP_pressure;BME280_temperature;BME280_humidity;BME280_pressure;Samples;Min_cycle;Max_cycle;Signal;HPM_P1;HPM_P2
2021/12/17 00:03:20;;;;;;;;;62.00;42.75;;;;;9.64;69.91;103465.78;5015865;28;45494;-74
2021/12/17 00:08:17;;;;;;;;;58.00;44.00;;;;;9.65;70.48;103464.97;5018734;28;45343;-74
2021/12/17 00:10:44;;;;;;;;;56.25;44.25;;;;;9.64;70.43;103471.06;5001166;28;45377;-74
2021/12/17 00:13:10;;;;;;;;;56.50;43.25;;;;;9.66;70.61;103472.03;5018068;28;54821;-74
2021/12/17 00:15:36;;;;;;;;;58.25;44.50;;;;;9.66;70.71;103465.88;5000805;28;45390;-76
2021/12/17 00:18:10;;;;;;;;;48.50;42.75;;;;;9.65;70.71;103467.59;5018286;28;45523;-74
2021/12/17 00:53:42;;;;;;;;;51.50;40.50;;;;;9.65;71.10;103435.94;5002915;28;45471;-74
2021/12/17 00:56:07;;;;;;;;;56.00;42.00;;;;;9.75;71.01;103457.53;5017566;28;46491;-73
2021/12/17 00:58:32;;;;;;;;;54.00;42.50;;;;;9.67;71.01;103428.09;5017138;28;45365;-74
2021/12/17 01:00:58;;;;;;;;;50.75;40.00;;;;;9.76;71.24;103455.00;5017731;28;45214;-74
2021/12/17 01:03:23;;;;;;;;;58.25;39.00;;;;;9.71;71.11;103448.56;5016976;28;51719;-74
2021/12/17 01:05:49;;;;;;;;;52.25;39.00;;;;;9.65;70.89;103428.03;5017339;28;51100;-74
2021/12/17 01:08:14;;;;;;;;;54.75;40.75;;;;;9.74;70.98;103442.53;5017080;28;48083;-74
2021/12/17 01:10:46;;;;;;;;;47.00;38.50;;;;;9.69;70.97;103434.34;5017533;28;45249;-76
2021/12/17 01:13:11;;;;;;;;;50.25;39.75;;;;;9.71;70.64;103451.19;5000143;28;45235;-75
2021/12/17 01:15:37;;;;;;;;;56.50;42.25;;;;;9.68;70.79;103445.75;5017232;28;45881;-74
2021/12/17 01:18:08;;;;;;;;;48.25;41.25;;;;;9.51;70.81;103415.78;4999435;28;46185;-75
2021/12/17 01:36:13;;;;;;;;;52.75;43.75;;;;;9.49;70.70;103442.91;5001859;28;45456;-74
2021/12/17 01:43:45;;;;;;;;;53.25;41.50;;;;;9.42;70.23;103436.34;5000350;28;45414;-74
2021/12/17 01:46:13;;;;;;;;;55.50;41.75;;;;;9.41;70.34;103437.16;4983306;28;47380;-74
2021/12/17 01:49:23;;;;;;;;;49.50;36.00;;;;;9.36;70.54;103436.91;5017241;28;45278;-75
2021/12/17 01:55:48;;;;;;;;;53.00;43.25;;;;;9.36;70.50;103446.53;5016649;28;45444;-74
2021/12/17 02:00:03;;;;;;;;;52.00;41.25;;;;;9.29;70.24;103432.09;5016653;28;45354;-73
2021/12/17 02:02:30;;;;;;;;;47.00;40.00;;;;;9.14;70.52;103415.38;5000091;28;45255;-74
2021/12/17 02:04:55;;;;;;;;;49.00;39.00;;;;;9.28;70.38;103435.56;5017117;28;45412;-74
2021/12/17 02:07:21;;;;;;;;;49.25;40.75;;;;;8.95;70.40;103373.91;4998959;28;46219;-75
2021/12/17 02:28:55;;;;;;;;;50.50;41.25;;;;;9.18;70.42;103434.13;5022795;28;45339;-74
2021/12/17 02:31:28;;;;;;;;;51.50;40.25;;;;;9.13;70.45;103429.41;5022799;28;45447;-74
2021/12/17 02:34:00;;;;;;;;;55.00;40.75;;;;;9.19;70.44;103435.94;5006433;28;45324;-74
2021/12/17 02:36:29;;;;;;;;;48.25;41.25;;;;;9.19;70.91;103435.00;5023120;28;45500;-74
2021/12/17 02:39:12;;;;;;;;;45.25;38.50;;;;;9.19;70.50;103438.56;5022734;28;46221;-75
2021/12/17 02:47:05;;;;;;;;;48.25;38.50;;;;;9.16;70.67;103427.84;5022618;28;45496;-75
2021/12/17 02:49:31;;;;;;;;;55.50;39.00;;;;;9.19;70.54;103432.38;5022564;28;46646;-74
2021/12/17 02:51:57;;;;;;;;;53.50;43.00;;;;;9.15;70.42;103426.00;4988062;28;45878;-74
2021/12/17 02:54:22;;;;;;;;;49.25;40.50;;;;;9.17;70.59;103428.75;4972166;28;45525;-75
2021/12/17 02:56:47;;;;;;;;;54.25;42.25;;;;;9.12;70.64;103417.03;4988061;28;45298;-76
2021/12/17 02:59:13;;;;;;;;;49.00;39.00;;;;;9.13;70.48;103419.75;5004657;28;54520;-75
2021/12/17 03:01:42;;;;;;;;;55.25;40.50;;;;;9.12;70.59;103420.59;5004830;28;45302;-74
2021/12/17 03:04:07;;;;;;;;;50.25;40.00;;;;;9.11;70.28;103418.78;5005673;28;45471;-74
2021/12/17 03:06:32;;;;;;;;;51.75;37.50;;;;;9.11;70.22;103420.50;4988408;28;46429;-74
2021/12/17 03:08:58;;;;;;;;;61.00;44.25;;;;;9.10;70.57;103418.66;5004738;28;45935;-74
2021/12/17 03:11:23;;;;;;;;;49.50;38.00;;;;;8.99;70.65;103396.03;5004430;28;45357;-73
2021/12/17 03:13:51;;;;;;;;;49.00;40.75;;;;;9.09;70.71;103416.84;5022369;28;45635;-74
2021/12/17 03:24:34;;;;;;;;;53.25;40.25;;;;;9.05;70.33;103417.47;4966983;28;45249;-73
2021/12/17 03:26:59;;;;;;;;;56.00;39.25;;;;;9.01;70.39;103408.50;5019272;28;45511;-74
2021/12/17 03:29:24;;;;;;;;;55.00;43.25;;;;;9.01;70.49;103404.97;5001189;28;51645;-74
2021/12/17 03:31:50;;;;;;;;;52.50;40.50;;;;;9.01;70.51;103408.50;5001125;28;45336;-74
2021/12/17 03:36:41;;;;;;;;;55.00;40.50;;;;;8.88;70.75;103383.13;5019007;28;45610;-74
2021/12/17 03:39:06;;;;;;;;;54.00;39.25;;;;;9.01;70.77;103411.16;5018965;28;46585;-74
2021/12/17 03:41:40;;;;;;;;;51.25;38.75;;;;;8.98;70.85;103410.94;5001021;28;45519;-74
2021/12/17 03:44:06;;;;;;;;;45.00;36.50;;;;;9.02;70.88;103431.41;5002596;28;45449;-74
2021/12/17 03:46:32;;;;;;;;;55.00;39.50;;;;;8.98;70.92;103415.31;5001137;28;45219;-74
2021/12/17 03:48:58;;;;;;;;;44.50;37.50;;;;;8.91;70.69;103398.25;5001026;28;46783;-75
2021/12/17 03:51:24;;;;;;;;;50.50;39.50;;;;;9.08;71.04;103418.56;5018617;28;45486;-74
2021/12/17 03:53:52;;;;;;;;;58.50;41.00;;;;;9.13;71.15;103416.22;5018437;28;45345;-74
2021/12/17 03:56:17;;;;;;;;;55.25;41.75;;;;;9.20;71.33;103413.09;5001080;28;45507;-74
2021/12/17 03:58:42;;;;;;;;;49.00;40.50;;;;;9.18;71.02;103391.94;5000288;28;45358;-74
2021/12/17 04:01:08;;;;;;;;;52.00;39.50;;;;;9.34;71.10;103420.09;5017175;28;45381;-74
2021/12/17 04:03:33;;;;;;;;;45.25;35.25;;;;;9.40;70.88;103424.81;5018587;28;45414;-74
2021/12/17 04:05:59;;;;;;;;;43.75;35.25;;;;;9.46;70.95;103417.25;4984212;28;47212;-74
2021/12/17 04:08:24;;;;;;;;;46.75;40.75;;;;;9.54;71.03;103418.59;5018334;28;45635;-74
2021/12/17 04:10:53;;;;;;;;;50.00;40.75;;;;;9.57;70.57;103408.19;5000547;28;45559;-76
2021/12/17 04:13:31;;;;;;;;;51.50;38.50;;;;;9.65;70.47;103411.28;5018644;28;45288;-74
2021/12/17 04:16:01;;;;;;;;;50.00;37.50;;;;;9.52;70.55;103380.66;5018518;28;45369;-75
2021/12/17 04:18:28;;;;;;;;;54.00;39.75;;;;;9.63;70.54;103390.06;4984313;28;47597;-75
2021/12/17 04:20:54;;;;;;;;;51.50;40.25;;;;;9.75;70.22;103407.41;5018461;28;45177;-74
2021/12/17 04:23:20;;;;;;;;;47.75;38.25;;;;;9.76;70.42;103404.88;5000901;28;45472;-74
2021/12/17 04:25:48;;;;;;;;;49.25;40.00;;;;;9.88;70.76;103415.19;5018224;28;45539;-73
2021/12/17 04:28:13;;;;;;;;;53.75;39.75;;;;;9.91;70.30;103416.28;5000129;28;47149;-75
2021/12/17 04:30:39;;;;;;;;;41.50;36.00;;;;;9.93;70.02;103406.72;5000111;28;45479;-75
2021/12/17 04:33:04;;;;;;;;;45.75;39.75;;;;;9.96;70.06;103406.00;5017971;28;45498;-76
2021/12/17 04:35:30;;;;;;;;;56.75;39.25;;;;;10.00;70.10;103399.13;5000664;28;45493;-74
2021/12/17 04:37:56;;;;;;;;;41.50;35.75;;;;;10.03;69.97;103401.94;4983214;28;46409;-75
2021/12/17 04:40:23;;;;;;;;;52.25;40.00;;;;;10.04;70.09;103399.38;5017784;28;45345;-74
2021/12/17 04:43:01;;;;;;;;;44.75;38.50;;;;;10.09;69.99;103403.16;5017769;28;45432;-76
2021/12/17 04:45:26;;;;;;;;;47.25;36.75;;;;;10.10;70.05;103402.34;5018254;28;45721;-74
2021/12/17 04:58:48;;;;;;;;;51.00;37.25;;;;;10.22;69.99;103399.44;5017248;28;45804;-75
2021/12/17 05:01:15;;;;;;;;;48.25;31.75;;;;;10.24;69.97;103392.56;4983733;28;45291;-74
2021/12/17 05:03:41;;;;;;;;;44.50;34.75;;;;;10.23;69.91;103398.66;4999732;28;45463;-74
2021/12/17 05:06:06;;;;;;;;;46.00;39.50;;;;;10.27;70.03;103384.78;5000186;28;45396;-74
2021/12/17 05:08:32;;;;;;;;;48.25;36.25;;;;;10.30;69.57;103390.25;4966928;28;47377;-74
2021/12/17 05:11:25;;;;;;;;;41.75;35.50;;;;;10.34;69.84;103394.88;5017463;28;45313;-74
2021/12/17 05:22:13;;;;;;;;;43.00;37.25;;;;;10.26;69.67;103372.44;4986951;28;45291;-75
2021/12/17 05:24:38;;;;;;;;;44.00;38.25;;;;;10.42;69.92;103395.28;5015768;28;45299;-75
2021/12/17 05:27:04;;;;;;;;;49.75;41.75;;;;;10.36;69.97;103380.00;4999286;28;45215;-75
2021/12/17 05:29:30;;;;;;;;;43.00;36.00;;;;;10.45;69.79;103393.72;4999303;28;45943;-75
2021/12/17 05:31:55;;;;;;;;;44.75;33.00;;;;;10.40;69.86;103383.72;4996983;28;45790;-76
2021/12/17 05:34:21;;;;;;;;;42.25;35.25;;;;;10.51;69.88;103400.13;4994723;28;45911;-75
2021/12/17 05:36:46;;;;;;;;;46.50;33.00;;;;;10.53;69.91;103398.47;5014738;28;55477;-75
2021/12/17 05:39:12;;;;;;;;;39.75;35.25;;;;;10.48;69.96;103380.63;4998437;28;45488;-74
2021/12/17 05:41:37;;;;;;;;;47.75;36.00;;;;;10.49;70.04;103374.56;5015610;28;62281;-75
2021/12/17 05:44:02;;;;;;;;;34.25;31.25;;;;;10.51;69.90;103373.72;4998383;28;45962;-75
2021/12/17 05:49:24;;;;;;;;;47.25;34.75;;;;;10.53;69.97;103375.59;5006856;28;47122;-74
2021/12/17 05:51:49;;;;;;;;;42.50;35.25;;;;;10.61;69.87;103382.22;5016775;28;45400;-74
2021/12/17 05:54:15;;;;;;;;;35.00;29.25;;;;;10.54;69.81;103365.94;5016542;28;45445;-73
2021/12/17 05:56:41;;;;;;;;;51.00;36.00;;;;;10.62;69.81;103373.44;5016751;28;45635;-76
2021/12/17 05:59:06;;;;;;;;;43.00;35.75;;;;;10.64;69.75;103384.09;4982235;28;45897;-73
2021/12/17 06:01:32;;;;;;;;;37.25;33.75;;;;;10.67;69.88;103385.16;4982632;28;45289;-75
2021/12/17 06:03:58;;;;;;;;;43.50;36.50;;;;;10.59;69.76;103367.09;5016539;28;45457;-75
2021/12/17 06:06:32;;;;;;;;;42.75;36.00;;;;;10.67;69.99;103379.88;4998707;28;45597;-75
2021/12/17 06:08:57;;;;;;;;;41.50;36.25;;;;;10.71;69.86;103370.38;4996978;28;46577;-75
2021/12/17 06:11:23;;;;;;;;;37.75;33.00;;;;;10.74;69.81;103381.09;5015013;28;45460;-75
2021/12/17 06:13:48;;;;;;;;;41.75;35.25;;;;;10.72;69.72;103385.41;4980005;28;60026;-75
2021/12/17 06:16:13;;;;;;;;;42.25;35.75;;;;;10.75;69.75;103390.81;4997165;28;54041;-75
2021/12/17 06:18:39;;;;;;;;;44.00;31.50;;;;;10.67;69.62;103373.69;5014692;28;47442;-75
2021/12/17 06:21:04;;;;;;;;;45.25;36.00;;;;;10.75;69.67;103383.78;5014986;28;61719;-76
2021/12/17 06:23:29;;;;;;;;;47.00;38.00;;;;;10.78;69.74;103388.34;5015177;28;59653;-76
2021/12/17 06:25:55;;;;;;;;;49.00;36.00;;;;;10.80;69.73;103389.31;5013767;28;60559;-75
2021/12/17 06:28:21;;;;;;;;;39.00;32.75;;;;;10.74;70.00;103374.06;5014535;28;66967;-74
2021/12/17 06:30:46;;;;;;;;;48.25;36.50;;;;;10.82;69.73;103389.44;5014923;28;45531;-75
2021/12/17 06:33:12;;;;;;;;;43.50;34.75;;;;;10.81;69.71;103392.88;5014233;28;46331;-74
2021/12/17 06:35:37;;;;;;;;;40.00;35.00;;;;;10.82;69.77;103386.78;5013361;28;60658;-73
2021/12/17 06:38:04;;;;;;;;;44.75;32.00;;;;;10.83;69.80;103386.84;4995946;28;63335;-74
2021/12/17 06:40:30;;;;;;;;;36.50;34.25;;;;;10.83;69.80;103385.94;5136810;23;1178247;-73
2021/12/17 06:42:56;;;;;;;;;49.50;34.25;;;;;10.85;69.61;103387.81;4985760;28;45480;-74
2021/12/17 06:45:37;;;;;;;;;37.25;33.50;;;;;10.82;69.87;103390.31;4982823;28;45601;-74
2021/12/17 06:48:03;;;;;;;;;46.25;37.25;;;;;10.85;69.77;103393.09;4963249;28;46930;-74
2021/12/17 07:17:22;;;;;;;;;45.00;37.00;;;;;10.69;70.33;103403.72;4978505;28;45362;-78
2021/12/17 07:40:47;;;;;;;;;41.00;35.00;;;;;10.74;70.54;103418.09;4972326;28;45510;-74
2021/12/17 07:43:22;;;;;;;;;38.00;30.75;;;;;10.78;70.63;103412.13;4997236;28;45349;-73
2021/12/17 07:45:47;;;;;;;;;42.50;36.00;;;;;10.84;70.58;103416.81;4983048;28;45530;-74
2021/12/17 07:48:14;;;;;;;;;39.00;29.75;;;;;10.85;70.44;103410.72;4979866;28;59300;-74
2021/12/17 07:50:40;;;;;;;;;48.50;34.75;;;;;10.90;70.50;103419.78;4983672;28;46031;-73
2021/12/17 07:53:05;;;;;;;;;46.00;36.75;;;;;10.84;70.31;103409.81;4987670;28;62146;-74
2021/12/17 07:55:31;;;;;;;;;47.75;36.75;;;;;10.94;70.20;103411.19;4991476;28;57905;-75
2021/12/17 07:57:56;;;;;;;;;48.50;36.50;;;;;10.95;70.15;103413.00;4979459;28;59616;-75
2021/12/17 08:00:21;;;;;;;;;42.50;34.50;;;;;10.98;70.29;103413.16;4999963;28;45837;-73
2021/12/17 08:02:47;;;;;;;;;44.50;36.00;;;;;10.99;70.33;103405.31;5001425;28;45422;-73
2021/12/17 08:05:12;;;;;;;;;41.00;35.25;;;;;11.01;70.29;103408.00;5001063;28;60854;-74
2021/12/17 08:07:37;;;;;;;;;37.25;32.00;;;;;11.05;70.36;103411.72;5003802;28;60635;-73
2021/12/17 08:10:03;;;;;;;;;38.00;34.75;;;;;11.04;69.98;103407.28;4981267;28;63842;-73
2021/12/17 08:12:29;;;;;;;;;41.50;36.50;;;;;11.02;69.93;103393.97;4997315;28;45341;-75
2021/12/17 08:14:54;;;;;;;;;37.25;30.75;;;;;11.11;70.25;103407.66;5004418;28;53770;-74
2021/12/17 08:17:45;;;;;;;;;41.25;31.00;;;;;11.14;70.14;103409.56;5003680;28;45710;-74
2021/12/17 08:23:54;;;;;;;;;42.00;31.75;;;;;11.17;70.10;103407.03;4988090;28;45300;-73
2021/12/17 08:26:07;;;;;;;;;44.00;35.00;;;;;11.13;70.29;103402.41;4989558;28;45638;-73
2021/12/17 08:28:53;;;;;;;;;43.00;31.75;;;;;11.19;70.02;103414.25;5000129;28;45452;-73
2021/12/17 08:31:18;;;;;;;;;34.00;32.25;;;;;11.12;70.01;103401.53;4981982;28;45504;-74
2021/12/17 08:33:44;;;;;;;;;40.25;30.25;;;;;11.17;69.98;103415.88;4979268;28;45461;-75
2021/12/17 08:36:09;;;;;;;;;36.75;32.00;;;;;11.24;70.06;103417.13;4963832;28;45242;-73
2021/12/17 08:38:35;;;;;;;;;39.75;33.50;;;;;11.26;70.04;103426.94;4995407;28;56798;-74
2021/12/17 08:41:00;;;;;;;;;36.50;29.75;;;;;11.30;70.54;103424.44;4987596;28;63741;-74
2021/12/17 08:43:26;;;;;;;;;41.50;31.25;;;;;11.22;70.09;103400.25;4987286;28;45394;-74
2021/12/17 08:45:51;;;;;;;;;32.75;30.50;;;;;11.32;69.83;103421.03;4969367;28;45458;-75
2021/12/17 08:48:17;;;;;;;;;34.25;30.00;;;;;11.23;69.85;103402.06;4987099;28;45423;-74
2021/12/17 08:50:42;;;;;;;;;39.25;32.25;;;;;11.35;69.87;103412.34;4989415;28;58238;-75
2021/12/17 08:53:08;;;;;;;;;36.75;30.75;;;;;11.32;70.04;103412.19;4978163;28;45334;-74
2021/12/17 08:55:33;;;;;;;;;36.00;31.25;;;;;11.38;70.16;103412.50;4978970;28;63791;-75
2021/12/17 08:57:59;;;;;;;;;41.50;31.00;;;;;11.38;69.82;103404.56;4978854;28;45492;-74
2021/12/17 09:00:24;;;;;;;;;34.75;30.50;;;;;11.39;70.15;103406.34;4997776;28;66947;-73
2021/12/17 09:02:50;;;;;;;;;40.50;33.00;;;;;11.37;69.83;103405.38;4996080;28;51213;-74
2021/12/17 09:05:17;;;;;;;;;41.25;30.75;;;;;11.39;69.99;103417.84;4999102;28;45539;-75
2021/12/17 09:07:43;;;;;;;;;33.75;28.25;;;;;11.41;69.79;103425.88;4980992;28;45616;-74
2021/12/17 09:10:10;;;;;;;;;35.25;30.75;;;;;11.42;69.97;103420.66;4997644;28;46862;-74
2021/12/17 09:12:36;;;;;;;;;37.00;31.25;;;;;11.44;69.89;103428.66;4993971;28;45673;-75
2021/12/17 09:15:01;;;;;;;;;34.50;28.75;;;;;11.44;69.83;103432.22;4997839;28;45682;-74
2021/12/17 09:17:27;;;;;;;;;34.75;27.00;;;;;11.45;69.96;103427.81;4972696;28;45583;-74
2021/12/17 09:19:52;;;;;;;;;32.75;23.75;;;;;11.42;70.01;103423.31;4986936;28;46633;-74
2021/12/17 09:22:18;;;;;;;;;38.25;29.00;;;;;11.47;70.04;103431.47;4999969;28;53329;-75
2021/12/17 09:24:43;;;;;;;;;34.00;24.00;;;;;11.49;69.84;103433.34;5000146;28;49333;-75
2021/12/17 09:27:08;;;;;;;;;34.25;30.75;;;;;11.49;70.00;103443.03;4978352;28;56549;-75
2021/12/17 09:29:34;;;;;;;;;38.75;30.25;;;;;11.43;69.82;103429.50;4973301;28;63941;-74
2021/12/17 09:31:59;;;;;;;;;31.00;25.25;;;;;11.53;69.96;103443.25;4961519;28;45584;-74
2021/12/17 09:34:25;;;;;;;;;30.50;25.75;;;;;11.55;69.87;103451.25;5006944;28;57701;-75
2021/12/17 09:36:50;;;;;;;;;36.00;26.00;;;;;11.53;69.71;103442.34;5000213;28;45314;-74
2021/12/17 09:39:17;;;;;;;;;33.00;29.25;;;;;11.57;69.86;103444.31;4999863;28;46666;-74
2021/12/17 09:41:43;;;;;;;;;39.25;28.75;;;;;11.59;69.83;103441.72;4988834;28;45461;-74
2021/12/17 09:44:15;;;;;;;;;30.50;29.00;;;;;11.63;69.56;103438.41;4971954;28;45539;-74
2021/12/17 09:46:41;;;;;;;;;26.75;24.25;;;;;11.64;69.56;103450.81;4978226;28;45291;-74
2021/12/17 09:49:07;;;;;;;;;26.25;26.25;;;;;11.65;69.70;103452.63;4958201;28;46291;-74
2021/12/17 09:51:33;;;;;;;;;32.50;24.75;;;;;11.62;69.58;103458.69;4939028;28;45279;-73
2021/12/17 09:53:59;;;;;;;;;34.75;26.25;;;;;11.68;69.81;103464.25;4978228;28;45412;-74
2021/12/17 09:56:27;;;;;;;;;28.50;26.75;;;;;11.69;69.57;103470.47;4975648;28;45579;-75
2021/12/17 09:58:53;;;;;;;;;30.50;27.25;;;;;11.68;69.26;103469.56;4972961;28;45935;-74
2021/12/17 10:01:18;;;;;;;;;31.75;29.25;;;;;11.54;69.40;103450.34;4966546;28;45532;-73
2021/12/17 10:03:43;;;;;;;;;30.00;22.75;;;;;11.65;69.64;103473.78;4974334;28;45491;-74
2021/12/17 10:06:22;;;;;;;;;36.50;25.50;;;;;11.48;69.57;103447.41;4968312;28;59738;-74
2021/12/17 10:08:48;;;;;;;;;30.00;25.75;;;;;11.62;69.50;103471.91;4951353;28;45559;-73
2021/12/17 10:11:14;;;;;;;;;33.25;25.75;;;;;11.65;69.55;103463.19;4954635;28;45423;-73
2021/12/17 10:13:39;;;;;;;;;39.50;30.00;;;;;11.64;69.78;103459.66;4973976;28;45467;-73
2021/12/17 10:16:06;;;;;;;;;30.25;26.75;;;;;11.64;69.54;103472.88;4971899;28;45452;-74
2021/12/17 10:18:39;;;;;;;;;37.75;27.25;;;;;11.64;69.79;103456.09;4969466;28;45982;-74
2021/12/17 10:21:06;;;;;;;;;37.75;29.75;;;;;11.60;69.80;103443.53;4971135;28;45529;-74
2021/12/17 10:23:32;;;;;;;;;36.75;31.25;;;;;11.69;69.49;103449.28;4938303;28;45630;-73
2021/12/17 10:25:58;;;;;;;;;39.25;28.00;;;;;11.56;69.78;103421.34;4971357;28;45483;-74
2021/12/17 10:28:23;;;;;;;;;37.00;31.00;;;;;11.71;69.64;103437.03;4971073;28;46714;-73
2021/12/17 10:30:50;;;;;;;;;38.00;30.50;;;;;11.76;69.54;103430.22;4938321;28;45606;-74
2021/12/17 10:33:20;;;;;;;;;28.25;25.75;;;;;11.77;69.78;103432.03;4969135;28;46605;-73
2021/12/17 10:35:48;;;;;;;;;33.50;29.25;;;;;11.77;69.68;103429.38;4975978;28;45611;-74
2021/12/17 10:38:16;;;;;;;;;39.25;28.50;;;;;11.71;69.30;103416.75;4957109;28;46980;-74
2021/12/17 10:40:48;;;;;;;;;33.50;30.50;;;;;11.83;69.51;103436.75;4969690;28;45528;-73
2021/12/17 10:45:57;;;;;;;;;30.00;27.25;;;;;11.87;69.36;103429.00;4974809;28;45518;-73
2021/12/17 10:51:15;;;;;;;;;36.00;29.50;;;;;11.93;69.15;103412.50;4976454;28;45533;-73
2021/12/17 10:53:53;;;;;;;;;38.50;28.75;;;;;11.86;69.06;103399.84;4974232;28;45413;-74
2021/12/17 10:56:22;;;;;;;;;33.50;27.50;;;;;11.83;68.96;103386.47;4978634;28;45757;-73
2021/12/17 10:58:57;;;;;;;;;39.75;31.00;;;;;12.03;69.08;103413.00;4947794;28;46766;-74
2021/12/17 11:01:55;;;;;;;;;34.25;27.25;;;;;12.05;68.97;103408.72;4973825;28;45544;-73
2021/12/17 11:04:27;;;;;;;;;27.50;25.25;;;;;12.08;68.98;103397.34;4971643;28;46160;-73
2021/12/17 11:06:58;;;;;;;;;31.25;26.75;;;;;12.10;68.90;103394.78;4958395;28;45654;-75
2021/12/17 11:09:43;;;;;;;;;35.50;29.50;;;;;12.11;67.80;103391.28;4975959;28;46689;-75
2021/12/17 11:12:14;;;;;;;;;29.00;25.00;;;;;12.12;68.62;103385.16;4976151;28;45428;-73
2021/12/17 11:14:42;;;;;;;;;33.75;28.50;;;;;12.14;68.66;103378.16;4977997;28;45475;-72
2021/12/17 11:17:12;;;;;;;;;37.25;27.50;;;;;12.09;68.36;103355.88;4977068;28;45623;-73
2021/12/17 11:19:37;;;;;;;;;29.00;25.75;;;;;12.13;68.23;103344.56;4976771;28;46410;-73
2021/12/17 11:22:03;;;;;;;;;28.50;28.25;;;;;12.26;68.47;103357.56;4964806;28;63537;-73
2021/12/17 11:24:29;;;;;;;;;35.75;27.25;;;;;12.33;68.17;103376.41;4998447;28;45269;-71
2021/12/17 11:26:55;;;;;;;;;33.75;28.75;;;;;12.36;68.20;103361.47;4965816;28;45421;-73
2021/12/17 11:29:20;;;;;;;;;37.25;30.25;;;;;12.39;68.16;103364.28;4959432;28;46426;-73
2021/12/17 11:31:47;;;;;;;;;38.00;32.50;;;;;12.44;67.94;103370.69;4977684;28;57616;-72
2021/12/17 11:34:12;;;;;;;;;33.25;31.00;;;;;12.41;67.53;103360.88;4957091;28;45532;-73
2021/12/17 11:36:37;;;;;;;;;35.25;27.00;;;;;12.51;67.70;103355.13;4963637;28;45441;-72
2021/12/17 11:39:29;;;;;;;;;40.00;28.00;;;;;12.47;67.17;103328.44;4976892;28;67630;-74
2021/12/17 11:42:16;;;;;;;;;33.75;27.75;;;;;12.59;67.43;103348.41;4971806;28;45549;-73
2021/12/17 11:44:50;;;;;;;;;31.75;27.50;;;;;12.61;67.12;103340.53;4985996;28;45457;-76
2021/12/17 11:47:16;;;;;;;;;32.75;28.75;;;;;12.64;67.21;103345.06;4965208;28;45596;-73
2021/12/17 11:49:52;;;;;;;;;35.00;31.25;;;;;12.63;67.05;103338.88;4974651;28;63958;-72
2021/12/17 11:52:33;;;;;;;;;33.00;30.50;;;;;12.66;66.47;103338.97;4995303;28;45261;-73
2021/12/17 11:55:30;;;;;;;;;30.25;25.25;;;;;12.68;66.72;103337.31;4978044;28;45365;-72
2021/12/17 11:57:58;;;;;;;;;27.00;25.75;;;;;12.70;66.42;103332.97;4956243;28;45420;-72
2021/12/17 12:00:44;;;;;;;;;32.75;26.75;;;;;12.74;66.34;103331.38;4985011;28;45706;-72
2021/12/17 12:03:12;;;;;;;;;27.75;26.75;;;;;12.69;65.99;103322.31;4971717;28;45509;-72
2021/12/17 12:05:40;;;;;;;;;28.75;26.25;;;;;12.72;66.03;103312.72;4962932;28;45379;-72
2021/12/17 12:08:25;;;;;;;;;33.00;28.50;;;;;12.85;65.93;103324.75;4990454;28;45727;-72
2021/12/17 12:11:11;;;;;;;;;34.75;30.25;;;;;12.88;64.29;103319.56;4987237;28;46687;-72
2021/12/17 12:13:39;;;;;;;;;34.50;28.00;;;;;12.89;65.34;103312.50;4959259;28;45532;-71
2021/12/17 12:16:06;;;;;;;;;30.25;24.00;;;;;12.92;64.97;103323.25;4978272;28;45500;-73
2021/12/17 12:18:51;;;;;;;;;29.25;23.00;;;;;12.98;64.96;103313.81;4968947;28;45648;-71
2021/12/17 12:21:24;;;;;;;;;29.50;29.00;;;;;13.00;64.51;103317.44;4975336;28;46185;-72
2021/12/17 12:23:57;;;;;;;;;39.00;28.50;;;;;13.03;64.42;103314.00;4990818;28;45513;-72
2021/12/17 12:26:45;;;;;;;;;26.50;22.50;;;;;13.08;64.44;103321.28;4973896;28;45618;-73
2021/12/17 12:29:14;;;;;;;;;28.75;22.75;;;;;13.03;64.81;103304.28;4983145;28;45440;-72
2021/12/17 12:31:41;;;;;;;;;32.50;27.00;;;;;13.01;64.60;103290.06;4988643;28;45679;-72
2021/12/17 12:34:13;;;;;;;;;31.25;27.50;;;;;13.11;64.26;103304.63;4991314;28;45536;-72
2021/12/17 12:37:04;;;;;;;;;30.75;25.50;;;;;13.15;64.26;103306.53;4989412;28;45574;-73
2021/12/17 12:39:32;;;;;;;;;29.00;26.50;;;;;13.18;64.25;103301.34;4987642;28;45490;-72
2021/12/17 12:42:07;;;;;;;;;36.00;29.25;;;;;13.22;64.27;103295.38;4992896;28;46707;-72
2021/12/17 12:44:44;;;;;;;;;30.00;25.75;;;;;13.22;64.13;103298.00;4970443;28;45342;-72
2021/12/17 12:47:09;;;;;;;;;30.25;25.00;;;;;13.25;64.29;103313.13;4987494;28;45461;-73
2021/12/17 12:49:47;;;;;;;;;30.00;25.75;;;;;13.29;64.03;103294.75;4990077;28;45543;-72
2021/12/17 12:52:20;;;;;;;;;30.25;28.25;;;;;13.32;63.99;103300.19;4981867;28;46803;-72
2021/12/17 12:54:48;;;;;;;;;30.00;26.75;;;;;13.32;63.82;103297.53;4989734;28;45607;-72
2021/12/17 12:57:26;;;;;;;;;29.75;27.00;;;;;13.18;63.43;103274.81;4984768;28;45507;-72
2021/12/17 12:59:52;;;;;;;;;32.50;26.00;;;;;13.23;63.51;103281.25;4973520;28;45940;-72
2021/12/17 13:02:17;;;;;;;;;32.25;29.00;;;;;13.25;62.95;103281.28;4949761;28;48085;-72
2021/12/17 13:04:42;;;;;;;;;26.50;23.00;;;;;13.32;63.57;103273.66;4974112;28;47357;-72
2021/12/17 13:07:08;;;;;;;;;28.75;24.25;;;;;13.40;63.35;103276.59;4981633;28;46138;-72
2021/12/17 13:09:33;;;;;;;;;33.75;26.50;;;;;13.44;63.22;103285.59;4985987;28;45519;-73
2021/12/17 13:11:59;;;;;;;;;31.00;26.25;;;;;13.38;62.73;103275.63;4952156;28;45978;-72
2021/12/17 13:14:26;;;;;;;;;29.75;23.75;;;;;13.25;62.28;103268.03;4984498;28;49547;-72
2021/12/17 13:17:16;;;;;;;;;29.00;24.25;;;;;13.17;62.52;103280.97;4981508;28;45521;-72
2021/12/17 13:22:59;;;;;;;;;28.00;24.75;;;;;12.88;62.31;103271.84;4931390;28;45740;-73
2021/12/17 13:25:28;;;;;;;;;26.75;25.00;;;;;12.82;63.47;103274.25;4952869;28;45379;-73
2021/12/17 13:27:54;;;;;;;;;28.00;25.00;;;;;12.86;63.71;103276.19;4956332;28;45457;-73
2021/12/17 13:30:24;;;;;;;;;27.00;23.25;;;;;12.93;63.07;103274.69;4962589;28;45985;-73
2021/12/17 13:32:51;;;;;;;;;26.00;23.00;;;;;13.04;63.41;103276.00;4971949;28;45974;-73
2021/12/17 13:35:17;;;;;;;;;26.00;23.75;;;;;13.09;63.43;103270.03;4956924;28;45465;-73
2021/12/17 13:37:43;;;;;;;;;23.75;22.75;;;;;13.14;62.65;103278.19;4961185;28;45580;-73
2021/12/17 13:40:10;;;;;;;;;24.75;21.25;;;;;13.07;62.75;103276.16;4964660;28;45580;-72
2021/12/17 13:42:43;;;;;;;;;28.00;23.75;;;;;13.02;62.86;103278.59;4954280;28;45581;-73
2021/12/17 13:45:09;;;;;;;;;25.00;22.50;;;;;12.98;62.39;103284.63;4971992;28;45487;-73
2021/12/17 13:47:36;;;;;;;;;24.00;20.50;;;;;12.82;62.84;103269.84;4974706;28;45508;-73
2021/12/17 13:50:28;;;;;;;;;32.33;24.00;;;;;12.75;63.18;103272.19;4952333;28;45613;-71
2021/12/17 13:52:53;;;;;;;;;28.50;23.75;;;;;12.67;63.16;103263.00;4968333;28;45983;-72
2021/12/17 13:55:27;;;;;;;;;29.00;21.25;;;;;12.52;63.15;103252.69;4972018;28;45639;-72
2021/12/17 13:57:53;;;;;;;;;27.25;26.00;;;;;12.49;63.35;103265.81;4939973;28;45583;-72
2021/12/17 14:00:21;;;;;;;;;25.25;21.00;;;;;12.40;63.50;103253.06;4952963;28;45775;-71
2021/12/17 14:02:47;;;;;;;;;32.25;24.75;;;;;12.39;63.80;103253.91;4955309;28;47252;-72
2021/12/17 14:05:30;;;;;;;;;27.50;25.00;;;;;12.34;63.88;103252.81;4969162;28;46734;-72
2021/12/17 14:07:59;;;;;;;;;29.25;23.00;;;;;12.29;64.10;103251.69;4973002;28;45386;-72
2021/12/17 14:10:34;;;;;;;;;35.75;26.75;;;;;12.23;63.96;103238.19;4971265;28;45615;-72
2021/12/17 14:13:00;;;;;;;;;50.25;37.25;;;;;12.23;64.51;103235.56;4956780;28;45784;-72
2021/12/17 14:15:27;;;;;;;;;34.50;27.25;;;;;12.21;64.32;103247.84;4972797;28;45371;-72
2021/12/17 14:17:55;;;;;;;;;25.75;21.75;;;;;12.18;64.19;103245.94;4972376;28;45551;-72
2021/12/17 14:20:25;;;;;;;;;30.50;22.25;;;;;12.19;64.62;103254.78;4971671;28;45425;-73